Oakland, California
Current Conditions -  °F | °C
As of 9:53 PM on Wednesday 26 Nov 2014 (Local Time) from KOAK Reporting Station
Few Clouds Few Clouds  
Wind Chill: 53°   Ceiling: Unl
Heat Index: 53°   Visibility: 9mi
Dew Point: 47°   Wind: 0mph
Humidity: 80%   Direction: NA
Pressure: 30.22"   Gusts: NA
Location:  37.81°N, 122.27°W
Report Text: KOAK 270553Z 00000KT 9SM FEW200 12/08 A3022 RMK AO2 SLP232 T01170083 10172 20100 51003
Loading
Personal Weather Stations






























Interactive Weather Map New forecast layout! Learn more

10-Day Weather Forecast

Advertisements
Track Severe Weather on mobile